Ridgewood, NJ (07450)

6:42 PM EST on November 20, 2014 (GMT -0500)
Hope Street | Change Station
CLOSE
Current Station
Personal Weather Station
Location: Ridgewood, NJ
Elevation: 120 ft
Nearby Weather Stations

Elev 120 ft 40.98 °N, 74.11 °W | Updated 8 minutes ago

Clear
Clear
38.7 °F
Feels Like 39 °F
N
0.0
Wind Variable Wind from NNW

Today
High -- | Low -- °F
--% Chance of Precip.
Yesterday
High -- | Low -- °F
Precip. -- in
6:49 AM 4:34 PM
Waning Crescent, 3% visible
Pressure 29.86 in
Visibility 10.0 miles
Clouds Clear
Windchill 39 °F
Dew Point 17 °F
Humidity 41%
Rainfall 0.00 in
Snow Depth Not available.
UV 0 out of 12
Pollen .10 out of 12
Air Quality Not available.
Flu Activity Not available.
METAR KTEB 202151Z 27007KT 10SM CLR 06/M07 A2986 RMK AO2 PK WND 24026/2101 SLP112 T00561072

More Conditions Fewer Conditions

Pressure 29.86 in
Visibility 10.0 miles
Clouds Clear
Windchill 39 °F
Dew Point 17 °F
Humidity 41%
Rainfall 0.00 in
Snow Depth Not available.
UV 0 out of 12
Pollen .10 out of 12
Air Quality Not available.
Flu Activity Not available.
METAR KTEB 202151Z 27007KT 10SM CLR 06/M07 A2986 RMK AO2 PK WND 24026/2101 SLP112 T00561072

More Conditions Fewer Conditions

10-Day Weather Forecast

Almanac

Astronomy

Nov. 20, 2014 Rise Set
Actual Time
Civil Twilight
Nautical Twilight
Astronomical Twilight
Moon
Length of Visible Light
Length of Day
Tomorrow will be .
, % of the Moon is Illuminated

Today's Extremes

State Highs State Lows

Community

WunderPhotos

Upload Photos

1,772,553 photos uploaded!

WunderBlogs® & News

Nearby

Air Quality

  Air Quality AQ Index Pollutant
Not available.

Snow Depth

Station Depth Elevation

Earthquake Activity

City Distance Mag. Time & Date
Minimum magnitude displayed is 2.5.

Coastal Water Temperatures

Place Temperature

Nearby Weather Stations